createdAt,value
2023-09-13T00:02:54.782Z,18.30
2023-09-13T00:25:22.957Z,22.40
2023-09-13T00:28:53.245Z,16.50
2023-09-13T00:32:43.733Z,17.90
2023-09-13T00:36:32.588Z,20.20
2023-09-13T00:40:26.262Z,19.10
2023-09-13T00:55:31.503Z,20.40
2023-09-13T00:59:20.669Z,19.00
2023-09-13T01:03:22.885Z,18.50
2023-09-13T01:07:19.867Z,18.10
2023-09-13T01:27:14.473Z,19.80
2023-09-13T01:31:03.899Z,21.70
2023-09-13T01:34:55.996Z,22.50
2023-09-13T01:43:31.103Z,19.60
2023-09-13T01:47:22.685Z,19.20
2023-09-13T01:51:02.163Z,17.10
2023-09-13T02:18:25.261Z,25.80
2023-09-13T02:22:14.516Z,23.50
2023-09-13T02:46:32.076Z,21.20
2023-09-13T02:50:15.484Z,22.50
2023-09-13T02:54:04.363Z,21.20
2023-09-13T02:57:52.598Z,24.00
2023-09-13T03:01:53.898Z,29.70
2023-09-13T03:05:44.513Z,21.70
2023-09-13T03:09:34.953Z,25.20
2023-09-13T03:25:23.763Z,22.60
2023-09-13T03:29:05.997Z,25.60
2023-09-13T03:32:55.345Z,24.40
2023-09-13T03:36:45.850Z,21.40
2023-09-13T03:52:32.545Z,26.20
2023-09-13T03:56:25.721Z,28.00
2023-09-13T04:00:18.025Z,23.70
2023-09-13T04:19:14.389Z,22.30
2023-09-13T04:23:03.893Z,22.40
2023-09-13T04:26:54.095Z,22.40
2023-09-13T04:30:26.075Z,24.90
2023-09-13T04:53:35.176Z,24.50
2023-09-13T04:57:22.048Z,25.50
2023-09-13T05:01:11.803Z,24.60
2023-09-13T05:27:09.053Z,31.20
2023-09-13T05:30:58.560Z,26.50
2023-09-13T05:34:49.737Z,28.90
2023-09-13T05:50:28.954Z,30.10
2023-09-13T05:54:10.446Z,26.10
2023-09-13T05:57:47.830Z,25.30
2023-09-13T06:01:37.361Z,26.20
2023-09-13T06:05:23.220Z,26.30
2023-09-13T06:41:55.762Z,22.10
2023-09-13T06:45:27.863Z,22.00
2023-09-13T06:47:58.322Z,25.90
2023-09-13T06:51:21.557Z,21.10
2023-09-13T06:53:52.151Z,20.60
2023-09-13T06:57:02.588Z,27.40
2023-09-13T06:59:47.890Z,24.60
2023-09-13T07:02:32.458Z,23.00
2023-09-13T07:07:51.540Z,19.30
2023-09-13T07:10:20.059Z,22.30
2023-09-13T07:13:04.131Z,19.50
2023-09-13T07:15:41.314Z,14.80
2023-09-13T07:20:58.373Z,17.30
2023-09-13T07:23:29.278Z,12.70
2023-09-13T07:26:00.620Z,16.90
2023-09-13T07:28:29.268Z,18.10
2023-09-13T07:30:58.094Z,16.50
2023-09-13T07:34:14.333Z,13.70
2023-09-13T07:37:03.951Z,16.30
2023-09-13T07:39:32.196Z,16.50
2023-09-13T07:42:00.729Z,16.10
2023-09-13T07:44:32.341Z,13.10
2023-09-13T07:47:13.581Z,13.10
2023-09-13T07:49:48.577Z,18.10
2023-09-13T07:52:18.468Z,16.70
2023-09-13T07:54:47.547Z,12.50
2023-09-13T07:57:29.621Z,20.30
2023-09-13T07:59:58.126Z,17.20
2023-09-13T08:04:57.479Z,14.50
2023-09-13T08:07:26.093Z,14.50
2023-09-13T08:12:27.696Z,19.20
2023-09-13T08:14:58.371Z,14.60
2023-09-13T08:17:30.004Z,15.40
2023-09-13T08:20:10.339Z,14.90
2023-09-13T08:22:40.667Z,14.40
2023-09-13T08:25:28.739Z,12.60
2023-09-13T08:28:02.784Z,14.40
2023-09-13T08:30:44.310Z,12.60
2023-09-13T08:33:18.187Z,12.20
2023-09-13T08:35:48.225Z,9.40
2023-09-13T08:38:16.577Z,12.60
2023-09-13T08:41:12.872Z,15.30
2023-09-13T08:43:44.004Z,15.90
2023-09-13T08:46:42.984Z,12.30
2023-09-13T08:49:19.800Z,11.70
2023-09-13T08:51:52.737Z,8.90
2023-09-13T08:54:21.155Z,9.20
2023-09-13T08:56:57.512Z,8.70
2023-09-13T08:59:53.597Z,12.80
2023-09-13T09:02:36.603Z,9.10
2023-09-13T09:05:09.151Z,12.30
2023-09-13T09:07:41.420Z,14.50
2023-09-13T09:10:15.700Z,11.50
2023-09-13T09:12:57.122Z,9.50
2023-09-13T09:15:30.519Z,14.10
2023-09-13T09:17:58.955Z,11.90
2023-09-13T09:23:20.682Z,9.50
2023-09-13T09:25:51.380Z,11.20
2023-09-13T09:28:37.641Z,12.00
2023-09-13T09:31:11.939Z,11.20
2023-09-13T09:34:03.640Z,13.50
2023-09-13T09:36:36.053Z,12.40
2023-09-13T09:39:06.890Z,16.80
2023-09-13T09:41:38.411Z,11.80
2023-09-13T09:44:21.225Z,14.30
2023-09-13T09:46:54.851Z,12.00
2023-09-13T09:49:33.858Z,10.80
2023-09-13T09:52:29.086Z,16.30
2023-09-13T09:55:05.564Z,13.10
2023-09-13T09:58:34.152Z,12.80
2023-09-13T10:01:05.504Z,10.00
2023-09-13T10:03:52.765Z,17.10
2023-09-13T10:06:21.131Z,8.20
2023-09-13T10:09:12.528Z,11.60
2023-09-13T10:11:57.958Z,10.10
2023-09-13T10:14:29.929Z,11.60
2023-09-13T10:17:00.980Z,9.70
2023-09-13T10:19:36.486Z,11.00
2023-09-13T10:22:05.127Z,11.70
2023-09-13T10:24:40.287Z,15.70
2023-09-13T10:27:13.961Z,8.80
2023-09-13T10:29:55.237Z,9.90
2023-09-13T10:32:33.796Z,10.30
2023-09-13T10:35:08.092Z,9.70
2023-09-13T10:37:40.323Z,9.80
2023-09-13T10:40:14.434Z,11.90
2023-09-13T10:42:43.721Z,10.10
2023-09-13T10:45:15.818Z,12.50
2023-09-13T10:48:07.273Z,10.30
2023-09-13T10:50:45.616Z,10.40
2023-09-13T10:53:15.560Z,13.90
2023-09-13T10:55:44.927Z,10.90
2023-09-13T10:58:20.146Z,9.50
2023-09-13T11:00:52.017Z,8.40
2023-09-13T11:03:22.991Z,12.10
2023-09-13T11:05:55.540Z,12.10
2023-09-13T11:08:53.111Z,11.20
2023-09-13T11:11:38.556Z,10.30
2023-09-13T11:14:32.887Z,8.80
2023-09-13T11:17:57.887Z,12.40
2023-09-13T11:20:39.750Z,11.20
2023-09-13T11:28:37.741Z,7.90
2023-09-13T11:31:07.407Z,9.90
2023-09-13T11:33:51.635Z,8.40
2023-09-13T11:36:37.676Z,10.90
2023-09-13T11:39:06.727Z,13.60
2023-09-13T11:41:53.988Z,10.20
2023-09-13T11:44:32.747Z,8.50
2023-09-13T11:47:05.444Z,8.90
2023-09-13T11:49:39.135Z,8.30
2023-09-13T11:52:44.671Z,7.60
2023-09-13T11:55:35.050Z,9.50
2023-09-13T11:58:48.216Z,12.60
2023-09-13T12:01:20.490Z,9.70
2023-09-13T12:04:23.918Z,10.20
2023-09-13T12:06:53.934Z,14.50
2023-09-13T12:09:39.083Z,10.60
2023-09-13T12:12:12.695Z,12.40
2023-09-13T12:17:16.981Z,15.50
2023-09-13T12:19:53.243Z,10.60
2023-09-13T12:22:24.336Z,12.20
2023-09-13T12:24:53.656Z,7.30
2023-09-13T12:27:27.377Z,9.20
2023-09-13T12:29:58.779Z,11.80
2023-09-13T12:32:32.941Z,11.30
2023-09-13T12:35:06.891Z,9.80
2023-09-13T12:37:35.423Z,9.50
2023-09-13T12:40:16.442Z,11.70
2023-09-13T12:42:53.118Z,8.90
2023-09-13T12:45:22.240Z,11.20
2023-09-13T12:47:52.461Z,13.80
2023-09-13T12:52:57.723Z,8.10
2023-09-13T12:55:26.315Z,6.10
2023-09-13T12:58:11.096Z,8.10
2023-09-13T13:01:13.945Z,10.80
2023-09-13T13:04:07.376Z,7.30
2023-09-13T13:07:21.785Z,9.20
2023-09-13T13:10:09.034Z,8.20
2023-09-13T13:12:47.416Z,10.90
2023-09-13T13:16:16.929Z,8.60
2023-09-13T13:19:25.214Z,6.90
2023-09-13T13:22:11.238Z,11.70
2023-09-13T13:24:53.199Z,8.60
2023-09-13T13:27:46.108Z,10.40
2023-09-13T13:30:37.520Z,12.20
2023-09-13T13:33:51.836Z,5.90
2023-09-13T13:36:50.123Z,7.60
2023-09-13T13:39:18.706Z,11.00
2023-09-13T13:42:17.177Z,8.00
2023-09-13T13:44:45.819Z,9.30
2023-09-13T13:47:19.393Z,8.30
2023-09-13T13:49:47.793Z,9.50
2023-09-13T13:53:16.597Z,13.00
2023-09-13T13:56:08.387Z,9.20
2023-09-13T13:59:04.469Z,8.80
2023-09-13T14:01:53.232Z,10.30
2023-09-13T14:04:21.961Z,8.90
2023-09-13T14:06:50.874Z,9.60
2023-09-13T14:09:21.855Z,9.40
2023-09-13T14:11:50.126Z,8.70
2023-09-13T14:14:20.440Z,11.80
2023-09-13T14:17:05.317Z,8.40
2023-09-13T14:19:36.532Z,10.70
2023-09-13T14:22:05.313Z,12.20
2023-09-13T14:24:34.139Z,8.80
2023-09-13T14:27:02.599Z,8.90
2023-09-13T14:29:40.704Z,12.60
2023-09-13T14:32:11.078Z,11.90
2023-09-13T14:34:51.145Z,8.10
2023-09-13T14:37:22.681Z,11.60
2023-09-13T14:39:51.175Z,8.90
2023-09-13T14:42:19.650Z,8.40
2023-09-13T14:44:47.936Z,12.80
2023-09-13T14:47:21.105Z,10.80
2023-09-13T14:49:50.915Z,8.00
2023-09-13T14:52:19.237Z,10.20
2023-09-13T14:57:50.106Z,9.90
2023-09-13T15:00:20.805Z,13.10
2023-09-13T15:02:49.723Z,12.90
2023-09-13T15:05:26.908Z,8.40
2023-09-13T15:07:55.578Z,8.60
2023-09-13T15:10:30.251Z,9.20
2023-09-13T15:12:59.459Z,10.80
2023-09-13T15:15:30.706Z,9.00
2023-09-13T15:17:59.074Z,11.70
2023-09-13T15:20:39.104Z,12.10
2023-09-13T15:23:27.958Z,9.90
2023-09-13T15:26:01.948Z,11.30
2023-09-13T15:28:31.110Z,15.60
2023-09-13T15:31:07.296Z,6.90
2023-09-13T15:33:37.740Z,10.70
2023-09-13T15:36:08.736Z,9.40
2023-09-13T15:41:41.577Z,17.80
2023-09-13T15:44:10.232Z,7.90
2023-09-13T15:47:01.440Z,10.80
2023-09-13T15:49:46.177Z,13.20
2023-09-13T15:52:14.540Z,23.80
2023-09-13T15:54:43.075Z,15.60
2023-09-13T15:57:18.105Z,9.80
2023-09-13T15:59:47.503Z,14.40
2023-09-13T16:02:40.070Z,11.90
2023-09-13T16:05:08.857Z,11.80
2023-09-13T16:10:28.384Z,11.70
2023-09-13T16:12:56.718Z,16.50
2023-09-13T16:15:25.079Z,10.10
2023-09-13T16:17:56.432Z,20.90
2023-09-13T16:20:30.343Z,11.10
2023-09-13T16:23:07.975Z,13.60
2023-09-13T16:25:36.870Z,17.20
2023-09-13T16:28:10.660Z,20.00
2023-09-13T16:30:59.331Z,11.80
2023-09-13T16:34:02.829Z,14.60
2023-09-13T16:36:33.994Z,9.00
2023-09-13T16:39:15.640Z,12.60
2023-09-13T16:41:43.922Z,11.30
2023-09-13T16:44:14.835Z,7.70
2023-09-13T16:46:57.589Z,10.80
2023-09-13T16:49:31.469Z,11.10
2023-09-13T16:52:08.782Z,10.40
2023-09-13T16:55:02.486Z,11.40
2023-09-13T16:57:46.253Z,14.20
2023-09-13T17:01:01.214Z,10.70
2023-09-13T17:03:39.783Z,9.80
2023-09-13T17:06:43.799Z,11.50
2023-09-13T17:09:20.645Z,11.40
2023-09-13T17:12:12.167Z,10.00
2023-09-13T17:15:06.550Z,16.10
2023-09-13T17:18:16.527Z,17.70
2023-09-13T17:21:14.984Z,15.60
2023-09-13T17:24:25.627Z,20.60
2023-09-13T17:27:34.877Z,21.50
2023-09-13T17:31:09.429Z,20.30
2023-09-13T17:34:32.582Z,19.20
2023-09-13T17:37:43.341Z,14.80
2023-09-13T17:40:35.502Z,17.40
2023-09-13T17:44:18.188Z,19.40
2023-09-13T17:47:27.647Z,15.10
2023-09-13T17:50:56.889Z,22.40
2023-09-13T17:54:20.614Z,34.00
2023-09-13T17:57:46.820Z,27.50
2023-09-13T18:01:07.374Z,27.90
2023-09-13T18:04:14.928Z,22.60
2023-09-13T18:10:18.592Z,16.70
2023-09-13T18:13:30.828Z,31.20
2023-09-13T18:16:49.229Z,29.20
2023-09-13T18:20:00.908Z,25.60
2023-09-13T18:22:50.872Z,20.60
2023-09-13T18:26:10.341Z,14.90
2023-09-13T18:29:30.578Z,21.90
2023-09-13T18:32:33.726Z,16.00
2023-09-13T18:35:21.009Z,13.70
2023-09-13T18:37:57.871Z,16.30
2023-09-13T18:41:07.332Z,16.00
2023-09-13T18:43:52.116Z,12.80
2023-09-13T18:46:46.089Z,14.10
2023-09-13T18:50:03.142Z,11.40
2023-09-13T18:53:22.351Z,11.00
2023-09-13T18:56:34.938Z,12.80
2023-09-13T18:59:34.264Z,16.10
2023-09-13T19:02:23.921Z,11.40
2023-09-13T19:05:08.291Z,11.30
2023-09-13T19:08:12.269Z,13.80
2023-09-13T19:11:18.192Z,11.20
2023-09-13T19:14:36.567Z,12.20
2023-09-13T19:18:17.601Z,10.50
2023-09-13T19:21:43.968Z,9.00
2023-09-13T19:24:55.991Z,8.90
2023-09-13T19:28:16.438Z,10.10
2023-09-13T19:31:26.501Z,9.90
2023-09-13T19:34:18.174Z,10.60
2023-09-13T19:37:22.485Z,7.70
2023-09-13T19:41:14.484Z,9.70
2023-09-13T19:44:38.856Z,8.20
2023-09-13T19:54:29.770Z,8.30
2023-09-13T20:02:07.855Z,6.60
2023-09-13T20:05:29.902Z,8.00
2023-09-13T20:08:24.436Z,7.40
2023-09-13T20:11:47.056Z,7.40
2023-09-13T20:15:02.069Z,6.80
2023-09-13T20:18:28.991Z,8.60
2023-09-13T20:22:18.409Z,6.70
2023-09-13T20:33:03.626Z,9.40
2023-09-13T20:35:39.601Z,15.60
2023-09-13T20:39:20.434Z,8.20
2023-09-13T20:42:39.491Z,7.50
2023-09-13T20:46:01.981Z,9.10
2023-09-13T20:49:15.285Z,9.90
2023-09-13T20:52:29.807Z,10.10
2023-09-13T20:55:33.925Z,22.80
2023-09-13T20:58:36.139Z,9.00
2023-09-13T21:01:38.135Z,12.30
2023-09-13T21:05:02.857Z,9.40
2023-09-13T21:07:52.034Z,16.30
2023-09-13T21:11:07.585Z,10.70
2023-09-13T21:14:23.565Z,8.90
2023-09-13T21:17:27.482Z,9.80
2023-09-13T21:20:31.273Z,9.50
2023-09-13T21:23:09.022Z,13.60
2023-09-13T21:25:55.778Z,8.90
2023-09-13T21:29:12.312Z,10.10
2023-09-13T21:32:38.913Z,9.60
2023-09-13T21:35:33.256Z,11.40
2023-09-13T21:39:04.529Z,10.20
2023-09-13T21:42:12.271Z,8.80
2023-09-13T21:45:46.665Z,8.00
2023-09-13T21:49:11.784Z,8.40
2023-09-13T21:52:50.489Z,9.30
2023-09-13T21:56:22.467Z,8.00
2023-09-13T21:59:37.060Z,8.60
